Time;durP1;ratioP1;P1;durP2;ratioP2;P2;SDS_P1;SDS_P2;PMS_P1;PMS_P2;Temp;Humidity;BMP_temperature;BMP_pressure;BME280_temperature;BME280_humidity;BME280_pressure;Samples;Min_cycle;Max_cycle;Signal;HPM_P1;HPM_P2
2024/01/05 12:24:26;;;;;;;5.03;3.65;;;2.80;99.90;;;;;;6208977;23;20023;-67
2024/01/05 12:27:12;;;;;;;5.50;3.65;;;2.80;99.90;;;;;;6181719;23;20624;-67
2024/01/05 12:29:58;;;;;;;6.45;3.67;;;2.80;99.90;;;;;;6180585;23;20064;-67
2024/01/05 12:32:44;;;;;;;6.32;4.07;;;2.80;99.90;;;;;;6181076;23;20017;-67
2024/01/05 12:35:30;;;;;;;5.55;3.42;;;2.90;99.90;;;;;;6178321;23;20472;-67
2024/01/05 12:38:27;;;;;;;7.00;4.07;;;2.80;99.90;;;;;;6180821;23;20017;-66
2024/01/05 12:41:14;;;;;;;9.07;5.90;;;2.90;99.90;;;;;;6178877;23;20152;-66
2024/01/05 12:44:00;;;;;;;12.85;6.32;;;2.90;99.90;;;;;;6179893;23;20045;-67
2024/01/05 12:46:47;;;;;;;6.10;4.97;;;2.80;99.90;;;;;;6181348;23;20013;-67
2024/01/05 12:49:35;;;;;;;8.98;5.30;;;2.90;99.90;;;;;;6181271;23;20028;-67
2024/01/05 12:52:36;;;;;;;6.32;4.47;;;2.90;99.90;;;;;;6180713;23;20024;-69
2024/01/05 12:55:29;;;;;;;5.75;4.20;;;2.90;99.90;;;;;;6160828;23;20059;-66
2024/01/05 12:58:15;;;;;;;7.25;4.25;;;3.00;99.90;;;;;;6180423;23;20013;-65
2024/01/05 13:01:03;;;;;;;5.55;4.18;;;3.00;99.90;;;;;;6180445;23;20364;-66
2024/01/05 13:03:56;;;;;;;6.65;4.18;;;3.00;99.90;;;;;;6180436;23;20028;-66
2024/01/05 13:06:43;;;;;;;6.25;4.50;;;3.00;99.90;;;;;;6181595;23;20019;-66
2024/01/05 13:09:32;;;;;;;8.18;5.15;;;3.00;99.90;;;;;;6181852;23;20121;-67
2024/01/05 13:12:18;;;;;;;5.95;4.05;;;3.10;99.90;;;;;;6179394;23;20025;-66
2024/01/05 13:15:04;;;;;;;6.07;3.67;;;3.10;99.90;;;;;;6178736;23;20040;-66
2024/01/05 13:17:51;;;;;;;7.65;4.63;;;3.10;99.90;;;;;;6180931;23;20096;-66
2024/01/05 13:20:37;;;;;;;8.57;5.65;;;3.20;99.90;;;;;;6180840;23;20023;-66
2024/01/05 13:23:23;;;;;;;11.20;7.20;;;3.20;99.90;;;;;;6177651;23;20020;-66
2024/01/05 13:26:09;;;;;;;8.38;5.53;;;3.20;99.90;;;;;;6201334;23;20083;-66
2024/01/05 13:28:55;;;;;;;10.07;5.80;;;3.20;99.90;;;;;;6210168;23;20078;-66
2024/01/05 13:31:41;;;;;;;7.25;4.95;;;3.30;99.90;;;;;;6208821;23;20024;-73
2024/01/05 13:34:27;;;;;;;7.32;4.80;;;3.30;99.90;;;;;;6208503;23;20051;-65
2024/01/05 13:37:13;;;;;;;7.60;4.85;;;3.30;99.90;;;;;;6206495;23;20322;-65
2024/01/05 13:40:00;;;;;;;7.28;4.97;;;3.30;99.90;;;;;;6210819;23;20004;-67
2024/01/05 13:42:45;;;;;;;7.68;5.05;;;3.30;99.90;;;;;;6209087;23;20349;-66
2024/01/05 13:45:31;;;;;;;9.13;6.22;;;3.30;99.90;;;;;;6205353;23;20008;-66
2024/01/05 13:48:17;;;;;;;10.25;5.75;;;3.40;99.90;;;;;;6204017;23;20442;-66
2024/01/05 13:51:03;;;;;;;8.23;5.25;;;3.30;99.90;;;;;;6204905;23;20047;-66
2024/01/05 13:53:49;;;;;;;7.40;5.07;;;3.30;99.90;;;;;;6208113;23;20008;-66
2024/01/05 13:56:35;;;;;;;9.13;5.57;;;3.30;99.90;;;;;;6210040;23;20009;-66
2024/01/05 13:59:21;;;;;;;7.22;5.25;;;3.30;99.90;;;;;;6205761;23;20012;-67
2024/01/05 14:02:07;;;;;;;8.50;6.00;;;3.30;99.90;;;;;;6207954;23;20078;-68
2024/01/05 14:04:53;;;;;;;7.03;4.50;;;3.30;99.90;;;;;;6208333;23;20096;-67
2024/01/05 14:07:39;;;;;;;7.18;4.72;;;3.30;99.90;;;;;;6209482;23;20040;-66
2024/01/05 14:10:25;;;;;;;8.23;5.30;;;3.30;99.90;;;;;;6211051;23;20337;-68
2024/01/05 14:13:11;;;;;;;6.43;4.65;;;3.30;99.90;;;;;;6186994;23;20106;-69
2024/01/05 14:15:56;;;;;;;7.65;5.03;;;3.20;99.90;;;;;;6205541;23;20017;-69
2024/01/05 14:18:43;;;;;;;8.75;4.80;;;3.20;99.90;;;;;;6206351;23;20008;-68
2024/01/05 14:21:29;;;;;;;8.05;5.47;;;3.30;99.90;;;;;;6208657;23;20450;-69
2024/01/05 14:24:15;;;;;;;9.95;5.93;;;3.20;99.90;;;;;;6208845;23;20004;-69
2024/01/05 14:27:01;;;;;;;8.48;5.45;;;3.20;99.90;;;;;;6207323;23;20392;-69
2024/01/05 14:29:47;;;;;;;8.45;5.28;;;3.20;99.90;;;;;;6207543;23;20059;-69
2024/01/05 14:32:33;;;;;;;6.68;4.82;;;3.20;99.90;;;;;;6205289;23;20411;-68
2024/01/05 14:35:20;;;;;;;5.97;4.03;;;3.20;99.90;;;;;;6205569;23;20013;-69
2024/01/05 14:38:06;;;;;;;6.50;4.60;;;3.20;99.90;;;;;;6208742;23;20023;-68
2024/01/05 14:40:53;;;;;;;7.32;4.80;;;3.20;99.90;;;;;;6208486;23;20009;-68
2024/01/05 14:43:39;;;;;;;7.35;5.00;;;3.20;99.90;;;;;;6186117;23;20028;-68
2024/01/05 14:46:25;;;;;;;7.68;5.30;;;3.20;99.90;;;;;;6188858;23;20015;-68
2024/01/05 14:49:11;;;;;;;7.72;5.15;;;3.20;99.90;;;;;;6211267;23;20009;-69
2024/01/05 14:51:59;;;;;;;6.38;4.97;;;3.20;99.90;;;;;;6209909;23;20028;-69
2024/01/05 14:54:45;;;;;;;7.80;5.65;;;3.20;99.90;;;;;;6212737;23;20008;-69
2024/01/05 14:57:31;;;;;;;7.65;4.95;;;3.20;99.90;;;;;;6205627;23;20103;-69
2024/01/05 15:00:19;;;;;;;7.80;5.45;;;3.20;99.90;;;;;;6207066;23;20016;-69
2024/01/05 15:03:05;;;;;;;7.00;5.10;;;3.20;99.90;;;;;;6208923;23;20008;-68
2024/01/05 15:05:51;;;;;;;8.02;5.78;;;3.20;99.90;;;;;;6211582;23;20013;-69
2024/01/05 15:08:37;;;;;;;11.00;5.93;;;3.20;99.90;;;;;;6209074;23;20008;-69
2024/01/05 15:11:23;;;;;;;9.25;5.57;;;3.20;99.90;;;;;;6212562;23;20311;-69
2024/01/05 15:14:09;;;;;;;8.93;6.47;;;3.20;99.90;;;;;;6207405;23;20060;-69
2024/01/05 15:16:55;;;;;;;10.52;6.28;;;3.30;99.90;;;;;;6210137;23;20040;-69
2024/01/05 15:19:41;;;;;;;10.73;6.45;;;3.30;99.90;;;;;;6210305;23;20020;-69
2024/01/05 15:22:27;;;;;;;10.68;6.45;;;3.30;99.90;;;;;;6191389;23;20009;-69
2024/01/05 15:25:14;;;;;;;10.45;7.00;;;3.30;99.90;;;;;;6238011;23;20073;-68
2024/01/05 15:28:00;;;;;;;9.68;6.97;;;3.30;99.90;;;;;;6234522;23;20012;-69
2024/01/05 15:30:47;;;;;;;9.05;5.95;;;3.30;99.90;;;;;;6222890;23;20011;-69
2024/01/05 15:33:32;;;;;;;9.50;6.25;;;3.30;99.90;;;;;;6222581;23;20449;-69
2024/01/05 15:36:18;;;;;;;8.68;6.43;;;3.40;99.90;;;;;;6210984;23;20013;-69
2024/01/05 15:39:07;;;;;;;11.80;6.32;;;3.40;99.90;;;;;;6212427;23;20055;-69
2024/01/05 15:41:53;;;;;;;10.55;6.50;;;3.40;99.90;;;;;;6215877;23;20035;-70
2024/01/05 15:44:39;;;;;;;9.48;6.30;;;3.40;99.90;;;;;;6187813;23;20038;-71
2024/01/05 15:47:27;;;;;;;9.45;6.32;;;3.40;99.90;;;;;;6209419;23;20009;-68
2024/01/05 15:50:13;;;;;;;8.60;6.57;;;3.40;99.90;;;;;;6208769;23;20009;-68
2024/01/05 15:52:59;;;;;;;9.82;6.78;;;3.40;99.90;;;;;;6210812;23;20062;-68
2024/01/05 15:55:44;;;;;;;9.68;6.45;;;3.40;99.90;;;;;;6207235;23;20318;-68
2024/01/05 15:58:30;;;;;;;13.90;8.10;;;3.40;99.90;;;;;;6209023;23;20005;-69
2024/01/05 16:01:16;;;;;;;9.85;7.63;;;3.40;99.90;;;;;;6205989;23;20008;-69
2024/01/05 16:04:03;;;;;;;10.60;7.18;;;3.30;99.90;;;;;;6208852;23;20013;-69
2024/01/05 16:06:49;;;;;;;9.45;6.22;;;3.40;99.90;;;;;;6211454;23;20070;-69
2024/01/05 16:09:35;;;;;;;10.70;6.80;;;3.40;99.90;;;;;;6204933;23;20009;-69
2024/01/05 16:12:21;;;;;;;11.80;7.50;;;3.40;99.90;;;;;;6203498;23;20453;-69
2024/01/05 16:15:12;;;;;;;10.05;7.47;;;3.40;99.90;;;;;;6205154;23;20004;-68
2024/01/05 16:18:01;;;;;;;11.57;8.50;;;3.50;99.90;;;;;;6209245;23;20008;-69
2024/01/05 16:20:47;;;;;;;10.98;7.22;;;3.50;99.90;;;;;;6210628;23;20407;-70
2024/01/05 16:23:33;;;;;;;10.23;7.22;;;3.50;99.90;;;;;;6209824;23;20499;-69
2024/01/05 16:26:20;;;;;;;11.38;8.07;;;3.50;99.90;;;;;;6209006;23;20414;-69
2024/01/05 16:29:06;;;;;;;11.25;8.02;;;3.50;99.90;;;;;;6206428;23;20032;-70
2024/01/05 16:31:52;;;;;;;11.32;7.55;;;3.50;99.90;;;;;;6207203;23;20349;-70
2024/01/05 16:34:37;;;;;;;10.95;7.78;;;3.60;99.90;;;;;;6206734;23;20433;-69
2024/01/05 16:37:23;;;;;;;11.15;7.25;;;3.50;99.90;;;;;;6208763;23;20013;-70
2024/01/05 16:40:10;;;;;;;14.07;8.30;;;3.60;99.90;;;;;;6208854;23;20001;-69
2024/01/05 16:42:56;;;;;;;10.98;7.65;;;3.60;99.90;;;;;;6209388;23;20009;-70
2024/01/05 16:45:45;;;;;;;12.70;8.25;;;3.60;99.90;;;;;;6207737;23;20497;-69
2024/01/05 16:48:31;;;;;;;14.55;8.68;;;3.60;99.90;;;;;;6210311;23;20031;-69
2024/01/05 16:51:19;;;;;;;11.52;8.38;;;3.60;99.90;;;;;;6188274;23;20012;-69
2024/01/05 16:54:05;;;;;;;13.88;7.95;;;3.60;99.90;;;;;;6210380;23;20009;-70
2024/01/05 16:56:51;;;;;;;13.73;9.00;;;3.50;99.90;;;;;;6205196;23;20009;-70
2024/01/05 16:59:38;;;;;;;17.50;10.63;;;3.50;99.90;;;;;;6210163;23;20159;-70
2024/01/05 17:02:24;;;;;;;11.48;8.30;;;3.50;99.90;;;;;;6185973;23;20008;-70
2024/01/05 17:05:10;;;;;;;14.50;8.95;;;3.50;99.90;;;;;;6210170;23;20066;-70
2024/01/05 17:07:56;;;;;;;14.23;8.98;;;3.50;99.90;;;;;;6208785;23;20064;-70
2024/01/05 17:10:43;;;;;;;12.77;8.77;;;3.50;99.90;;;;;;6210472;23;20126;-70
2024/01/05 17:13:30;;;;;;;13.25;8.25;;;3.50;99.90;;;;;;6211269;23;20024;-69
2024/01/05 17:16:16;;;;;;;13.70;8.75;;;3.50;99.90;;;;;;6209006;23;20067;-69
2024/01/05 17:19:02;;;;;;;13.50;8.90;;;3.60;99.90;;;;;;6210829;23;20090;-69
2024/01/05 17:21:48;;;;;;;15.95;10.98;;;3.60;99.90;;;;;;6206305;23;20009;-69
2024/01/05 17:24:36;;;;;;;14.30;10.27;;;3.60;99.90;;;;;;6209172;23;20405;-68
2024/01/05 17:27:22;;;;;;;15.40;9.88;;;3.60;99.90;;;;;;6210359;23;20055;-69
2024/01/05 17:30:09;;;;;;;18.08;11.18;;;3.60;99.90;;;;;;6207674;23;20091;-68
2024/01/05 17:32:56;;;;;;;15.48;10.48;;;3.60;99.90;;;;;;6210206;23;20060;-68
2024/01/05 17:35:42;;;;;;;14.10;9.68;;;3.50;99.90;;;;;;6209316;23;20019;-69
2024/01/05 17:38:28;;;;;;;17.48;11.00;;;3.60;99.90;;;;;;6208915;23;20017;-68
2024/01/05 17:41:14;;;;;;;19.23;11.60;;;3.60;99.90;;;;;;6208351;23;20009;-69
2024/01/05 17:44:00;;;;;;;17.95;11.35;;;3.60;99.90;;;;;;6209230;23;20012;-69
2024/01/05 17:46:46;;;;;;;16.05;10.13;;;3.60;99.90;;;;;;6209742;23;20016;-69
2024/01/05 17:49:32;;;;;;;17.98;10.02;;;3.60;99.90;;;;;;6209471;23;20055;-69
2024/01/05 17:52:20;;;;;;;16.42;10.70;;;3.60;99.90;;;;;;6209194;23;20469;-69
2024/01/05 17:55:06;;;;;;;15.93;10.98;;;3.60;99.90;;;;;;6209784;23;20004;-69
2024/01/05 17:57:52;;;;;;;18.75;11.02;;;3.60;99.90;;;;;;6210382;23;20080;-68
2024/01/05 18:00:38;;;;;;;15.57;11.43;;;3.60;99.90;;;;;;6207907;23;20009;-71
2024/01/05 18:03:25;;;;;;;14.48;10.05;;;3.60;99.90;;;;;;6209234;23;20385;-72
2024/01/05 18:06:11;;;;;;;18.63;12.10;;;3.60;99.90;;;;;;6209739;23;20052;-69
2024/01/05 18:08:58;;;;;;;15.07;10.98;;;3.60;99.90;;;;;;6209797;23;20013;-71
2024/01/05 18:11:44;;;;;;;17.85;11.93;;;3.60;99.90;;;;;;6208742;23;20021;-71
2024/01/05 18:14:31;;;;;;;19.85;12.55;;;3.60;99.90;;;;;;6187151;23;20036;-70
2024/01/05 18:17:16;;;;;;;16.55;11.45;;;3.60;99.90;;;;;;6209239;23;20032;-69
2024/01/05 18:20:03;;;;;;;16.58;11.35;;;3.60;99.90;;;;;;6211493;23;20005;-71
2024/01/05 18:22:49;;;;;;;17.27;11.85;;;3.70;99.90;;;;;;6213449;23;20468;-75
2024/01/05 18:25:40;;;;;;;19.27;12.70;;;3.60;99.90;;;;;;6208708;23;20021;-71
2024/01/05 18:28:26;;;;;;;18.08;11.55;;;3.70;99.90;;;;;;6189794;23;20013;-71
2024/01/05 18:31:12;;;;;;;16.02;12.15;;;3.70;99.90;;;;;;6212291;23;20019;-71
2024/01/05 18:33:59;;;;;;;20.50;12.55;;;3.70;99.90;;;;;;6209400;23;20146;-71
2024/01/05 18:36:44;;;;;;;17.83;12.20;;;3.70;99.90;;;;;;6212983;23;20314;-71
2024/01/05 18:39:30;;;;;;;16.27;10.57;;;3.70;99.90;;;;;;6212217;23;20008;-70
2024/01/05 18:42:16;;;;;;;18.70;12.95;;;3.70;99.90;;;;;;6212887;23;20333;-70
2024/01/05 18:45:03;;;;;;;19.35;12.43;;;3.80;99.90;;;;;;6211409;23;20012;-72
2024/01/05 18:47:50;;;;;;;19.58;13.00;;;3.80;99.90;;;;;;6211531;23;20063;-70
2024/01/05 18:50:37;;;;;;;17.25;11.65;;;3.70;99.90;;;;;;6212571;23;20393;-70
2024/01/05 18:53:23;;;;;;;19.73;13.20;;;3.80;99.90;;;;;;6212779;23;20024;-71
2024/01/05 18:56:12;;;;;;;19.45;12.60;;;3.80;99.90;;;;;;6211510;23;20009;-69
2024/01/05 18:58:59;;;;;;;18.60;13.60;;;3.80;99.90;;;;;;6240478;23;20031;-69
2024/01/05 19:01:48;;;;;;;18.02;12.13;;;3.80;99.90;;;;;;6215994;23;20008;-70
2024/01/05 19:04:34;;;;;;;20.08;13.50;;;3.80;99.90;;;;;;6233776;23;20017;-69
2024/01/05 19:07:19;;;;;;;20.60;13.05;;;3.80;99.90;;;;;;6206368;23;20011;-69
2024/01/05 19:10:06;;;;;;;20.75;13.23;;;3.80;99.90;;;;;;6213849;23;20009;-70
2024/01/05 19:12:52;;;;;;;23.10;14.50;;;3.80;99.90;;;;;;6212593;23;20071;-61
2024/01/05 19:15:37;;;;;;;24.25;14.55;;;3.80;99.90;;;;;;6211145;23;20008;-61
2024/01/05 19:18:24;;;;;;;22.63;15.60;;;3.80;99.90;;;;;;6211614;23;20103;-60
2024/01/05 19:21:10;;;;;;;22.67;15.18;;;3.80;99.90;;;;;;6209388;23;20008;-60
2024/01/05 19:23:56;;;;;;;22.23;14.18;;;3.70;99.90;;;;;;6211577;23;20009;-61
2024/01/05 19:26:42;;;;;;;21.20;13.75;;;3.80;99.90;;;;;;6211802;23;20463;-60
2024/01/05 19:29:28;;;;;;;21.70;13.88;;;3.80;99.90;;;;;;6212230;23;20448;-60
2024/01/05 19:32:14;;;;;;;20.52;14.13;;;3.70;99.90;;;;;;6210443;23;20017;-60
2024/01/05 19:35:00;;;;;;;20.23;12.98;;;3.60;99.90;;;;;;6211406;23;20028;-60
2024/01/05 19:37:46;;;;;;;22.88;14.43;;;3.60;99.90;;;;;;6212273;23;20074;-61
2024/01/05 19:40:32;;;;;;;25.60;16.85;;;3.60;99.90;;;;;;6209018;23;20012;-60
2024/01/05 19:43:18;;;;;;;24.17;14.77;;;3.60;99.90;;;;;;6211218;23;20019;-61
2024/01/05 19:46:08;;;;;;;24.73;14.85;;;3.70;99.90;;;;;;6211710;23;20368;-61
2024/01/05 19:48:54;;;;;;;22.73;14.43;;;3.70;99.90;;;;;;6211100;23;20039;-60
2024/01/05 19:51:45;;;;;;;21.88;13.98;;;3.60;99.90;;;;;;6184590;23;20104;-61
2024/01/05 19:54:31;;;;;;;24.17;15.18;;;3.60;99.90;;;;;;6210671;23;20018;-60
2024/01/05 19:57:17;;;;;;;26.38;16.23;;;3.60;99.90;;;;;;6211917;23;20009;-60
2024/01/05 20:00:04;;;;;;;25.60;15.77;;;3.60;99.90;;;;;;6211396;23;20581;-60
2024/01/05 20:02:50;;;;;;;25.95;16.20;;;3.60;99.90;;;;;;6189711;23;20019;-60
2024/01/05 20:05:36;;;;;;;28.50;16.20;;;3.60;99.90;;;;;;6189852;23;20420;-61
2024/01/05 20:08:22;;;;;;;25.15;15.13;;;3.60;99.90;;;;;;6210389;23;20069;-61
2024/01/05 20:11:10;;;;;;;25.50;16.35;;;3.60;99.90;;;;;;6185848;23;20016;-61
2024/01/05 20:13:56;;;;;;;28.48;17.13;;;3.60;99.90;;;;;;6208593;23;20020;-61
2024/01/05 20:16:42;;;;;;;26.45;17.00;;;3.70;99.90;;;;;;6210774;23;20008;-60
2024/01/05 20:19:28;;;;;;;24.75;15.45;;;3.70;99.90;;;;;;6210219;23;20096;-60
2024/01/05 20:22:14;;;;;;;25.75;16.92;;;3.70;99.90;;;;;;6210997;23;20043;-61
2024/01/05 20:25:00;;;;;;;29.85;18.35;;;3.60;99.90;;;;;;6209705;23;20031;-61
2024/01/05 20:27:47;;;;;;;26.30;16.65;;;3.70;99.90;;;;;;6211004;23;20016;-61
2024/01/05 20:30:33;;;;;;;27.35;17.88;;;3.70;99.90;;;;;;6210938;23;20075;-61
2024/01/05 20:33:19;;;;;;;30.35;18.23;;;3.70;99.90;;;;;;6211111;23;20105;-61
2024/01/05 20:36:06;;;;;;;27.98;17.10;;;3.70;99.90;;;;;;6211335;23;20334;-61
2024/01/05 20:38:52;;;;;;;30.27;17.25;;;3.70;99.90;;;;;;6211629;23;20013;-61
2024/01/05 20:41:38;;;;;;;30.45;17.63;;;3.70;99.90;;;;;;6189497;23;20015;-61
2024/01/05 20:44:24;;;;;;;28.80;17.85;;;3.70;99.90;;;;;;6211161;23;20004;-61
2024/01/05 20:47:10;;;;;;;28.48;17.17;;;3.70;99.90;;;;;;6211005;23;20009;-61
2024/01/05 20:49:56;;;;;;;28.25;17.27;;;3.70;99.90;;;;;;6188016;23;20100;-61
2024/01/05 20:52:42;;;;;;;29.67;17.55;;;3.70;99.90;;;;;;6210951;23;20016;-61
2024/01/05 20:55:28;;;;;;;30.98;18.58;;;3.70;99.90;;;;;;6210785;23;20008;-61
2024/01/05 20:58:15;;;;;;;29.23;17.83;;;3.70;99.90;;;;;;6211021;23;20087;-61
2024/01/05 21:01:01;;;;;;;29.75;18.60;;;3.70;99.90;;;;;;6211024;23;20009;-61
2024/01/05 21:03:47;;;;;;;32.92;18.98;;;3.70;99.90;;;;;;6188803;23;20012;-61
2024/01/05 21:06:34;;;;;;;32.72;20.30;;;3.70;99.90;;;;;;6211348;23;20066;-61
2024/01/05 21:09:20;;;;;;;31.40;18.20;;;3.70;99.90;;;;;;6210463;23;20027;-61
2024/01/05 21:12:06;;;;;;;31.98;20.08;;;3.80;99.90;;;;;;6186087;23;20020;-61
2024/01/05 21:14:52;;;;;;;31.23;18.05;;;3.70;99.90;;;;;;6209784;23;20020;-61
2024/01/05 21:17:38;;;;;;;33.35;20.80;;;3.70;99.90;;;;;;6210690;23;20046;-60
2024/01/05 21:20:24;;;;;;;31.75;19.83;;;3.70;99.90;;;;;;6210091;23;20745;-61
2024/01/05 21:23:10;;;;;;;32.58;20.63;;;3.70;99.90;;;;;;6209849;23;20039;-61
2024/01/05 21:25:56;;;;;;;34.40;19.17;;;3.70;99.90;;;;;;6210735;23;20319;-59
2024/01/05 21:28:42;;;;;;;33.45;20.17;;;3.80;99.90;;;;;;6210339;23;20449;-61
2024/01/05 21:31:28;;;;;;;31.48;18.70;;;3.70;99.90;;;;;;6210397;23;20024;-61
2024/01/05 21:34:17;;;;;;;34.08;19.95;;;3.70;99.90;;;;;;6209323;23;20052;-62
2024/01/05 21:37:03;;;;;;;32.17;20.38;;;3.80;99.90;;;;;;6210336;23;20012;-62
2024/01/05 21:39:50;;;;;;;34.95;20.00;;;3.80;99.90;;;;;;6209686;23;20009;-61
2024/01/05 21:42:36;;;;;;;34.05;18.85;;;3.80;99.90;;;;;;6209732;23;20480;-61
2024/01/05 21:45:21;;;;;;;35.30;20.05;;;3.80;99.90;;;;;;6188423;23;20092;-69
2024/01/05 21:48:10;;;;;;;34.03;19.55;;;3.80;99.90;;;;;;6210893;23;20019;-70
2024/01/05 21:50:56;;;;;;;33.25;20.75;;;3.80;99.90;;;;;;6210442;23;20098;-70
2024/01/05 21:53:42;;;;;;;40.90;23.23;;;3.80;99.90;;;;;;6210531;23;20013;-70
2024/01/05 21:56:28;;;;;;;33.28;21.17;;;3.70;99.90;;;;;;6210068;23;20012;-70
2024/01/05 21:59:14;;;;;;;33.45;20.63;;;3.70;99.90;;;;;;6210055;23;20036;-70
2024/01/05 22:02:00;;;;;;;32.85;19.40;;;3.70;99.90;;;;;;6211159;23;20009;-70
2024/01/05 22:04:46;;;;;;;36.47;22.00;;;3.70;99.90;;;;;;6210702;23;20437;-70
2024/01/05 22:07:34;;;;;;;33.30;19.88;;;3.70;99.90;;;;;;6210920;23;20460;-70
2024/01/05 22:10:20;;;;;;;40.88;21.92;;;3.70;99.90;;;;;;6210222;23;20410;-70
2024/01/05 22:13:06;;;;;;;40.22;21.45;;;3.70;99.90;;;;;;6210293;23;20012;-71
2024/01/05 22:15:54;;;;;;;41.70;24.77;;;3.70;99.90;;;;;;6209789;23;20333;-69
2024/01/05 22:18:40;;;;;;;39.78;21.48;;;3.60;99.90;;;;;;6209398;23;20020;-70
2024/01/05 22:21:26;;;;;;;33.92;20.42;;;3.60;99.90;;;;;;6210940;23;20016;-70
2024/01/05 22:24:11;;;;;;;36.90;20.83;;;3.60;99.90;;;;;;6210998;23;20369;-70
2024/01/05 22:27:04;;;;;;;36.45;21.27;;;3.70;99.90;;;;;;6189367;23;20111;-70
2024/01/05 22:29:51;;;;;;;37.60;22.35;;;3.70;99.90;;;;;;6210442;23;20027;-70
2024/01/05 22:32:38;;;;;;;41.22;23.95;;;3.70;99.90;;;;;;6237247;23;20016;-71
2024/01/05 22:35:24;;;;;;;37.08;21.75;;;3.70;99.90;;;;;;6237267;23;20236;-71
2024/01/05 22:38:10;;;;;;;35.75;20.77;;;3.70;99.90;;;;;;6234755;23;20009;-71
2024/01/05 22:40:56;;;;;;;35.60;20.65;;;3.70;99.90;;;;;;6234574;23;20009;-70
2024/01/05 22:43:42;;;;;;;36.45;23.52;;;3.70;99.90;;;;;;6213887;23;20457;-70
2024/01/05 22:46:28;;;;;;;39.13;22.63;;;3.70;99.90;;;;;;6210384;23;20012;-70
2024/01/05 22:49:14;;;;;;;40.17;23.45;;;3.80;99.90;;;;;;6210895;23;20091;-70
2024/01/05 22:51:59;;;;;;;42.78;22.55;;;3.80;99.90;;;;;;6210479;23;20028;-70
2024/01/05 22:54:45;;;;;;;40.50;23.58;;;3.80;99.90;;;;;;6209371;23;20063;-70
2024/01/05 22:57:31;;;;;;;42.05;23.90;;;3.80;99.90;;;;;;6210255;23;20008;-69
2024/01/05 23:00:19;;;;;;;37.90;22.80;;;3.90;99.90;;;;;;6210563;23;20016;-70
2024/01/05 23:03:05;;;;;;;38.72;22.73;;;3.90;99.90;;;;;;6209799;23;20008;-70
2024/01/05 23:05:51;;;;;;;39.55;24.55;;;3.90;99.90;;;;;;6211011;23;20016;-70
2024/01/05 23:08:37;;;;;;;41.53;24.05;;;3.90;99.90;;;;;;6211301;23;20009;-70
2024/01/05 23:11:23;;;;;;;42.15;24.58;;;3.90;99.90;;;;;;6212595;23;20020;-70
2024/01/05 23:14:09;;;;;;;39.65;22.98;;;3.90;99.90;;;;;;6211664;23;20012;-70
2024/01/05 23:16:55;;;;;;;41.22;22.75;;;3.90;99.90;;;;;;6211865;23;20035;-70
2024/01/05 23:19:41;;;;;;;38.22;21.80;;;3.90;99.90;;;;;;6211626;23;20131;-70
2024/01/05 23:22:28;;;;;;;44.03;25.60;;;3.90;99.90;;;;;;6190717;23;20005;-70
2024/01/05 23:25:14;;;;;;;41.58;24.23;;;3.90;99.90;;;;;;6211409;23;20021;-71
2024/01/05 23:28:00;;;;;;;44.50;25.27;;;3.90;99.90;;;;;;6211881;23;20005;-70
2024/01/05 23:30:46;;;;;;;42.42;25.05;;;3.90;99.90;;;;;;6210743;23;20016;-70
2024/01/05 23:33:32;;;;;;;39.10;22.70;;;3.90;99.90;;;;;;6211521;23;20020;-70
2024/01/05 23:36:18;;;;;;;41.10;22.00;;;3.90;99.90;;;;;;6209997;23;20047;-70
2024/01/05 23:39:04;;;;;;;44.53;24.45;;;3.80;99.90;;;;;;6211945;23;20032;-70
2024/01/05 23:41:50;;;;;;;42.47;24.50;;;3.80;99.90;;;;;;6210968;23;20088;-71
2024/01/05 23:44:36;;;;;;;43.15;25.10;;;3.80;99.90;;;;;;6211785;23;20384;-71
2024/01/05 23:47:22;;;;;;;44.25;24.73;;;3.70;99.90;;;;;;6210761;23;20066;-70
2024/01/05 23:50:08;;;;;;;36.20;22.00;;;3.70;99.90;;;;;;6210576;23;20036;-71
2024/01/05 23:52:54;;;;;;;41.05;23.13;;;3.70;99.90;;;;;;6212203;23;20020;-71
2024/01/05 23:55:40;;;;;;;40.97;24.38;;;3.60;99.90;;;;;;6212169;23;20009;-70
2024/01/05 23:58:26;;;;;;;44.10;25.35;;;3.60;99.90;;;;;;6211753;23;20327;-71
